This is the latest recevied weather packets stored in our database for station/object W1CAT. If no packets are shown the sender has not sent any weather packets the latest 10 day(s).
| Time | Temp. | Humidity | Pressure | Rain* | Wind** | Luminosity | Snow |
|---|---|---|---|---|---|---|---|
| 1778026187 | 16.11° C | 28% | - | 0 mm | - | - | - |
| 1778025884 | 16.11° C | 32% | - | 0 mm | - | - | - |
| 1778025581 | 15° C | 34% | - | 0 mm | - | - | - |
| 1778025279 | 13.89° C | 37% | - | 0 mm | - | - | - |
| 1778024976 | 13.33° C | 38% | - | 0 mm | - | - | - |
| 1778024673 | 12.78° C | 41% | - | 0 mm | - | - | - |
| 1778024370 | 11.67° C | 43% | - | 0 mm | - | - | - |
| 1778024068 | 12.22° C | 45% | - | 0 mm | - | - | - |
| 1778023765 | 11.67° C | 44% | - | 0 mm | - | - | - |
| 1778023463 | 11.67° C | 46% | - | 0 mm | - | - | - |
| 1778023159 | 11.67° C | 46% | - | 0 mm | - | - | - |
| 1778022857 | 11.11° C | 49% | - | 0 mm | - | - | - |
| 1778022555 | 10.56° C | 51% | - | 0 mm | - | - | - |
| 1778022252 | 10.56° C | 50% | - | 0 mm | - | - | - |
| 1778021949 | 10.56° C | 51% | - | 0 mm | - | - | - |
| 1778021646 | 11.11° C | 49% | - | 0 mm | - | - | - |
| 1778021346 | 11.67° C | 47% | - | 0 mm | - | - | - |
| 1778021044 | 11.11° C | 49% | - | 0 mm | - | - | - |
| 1778020741 | 12.78° C | 47% | - | 0 mm | - | - | - |
| 1778020437 | 13.89° C | 43% | - | 0 mm | - | - | - |
| 1778020133 | 15° C | 41% | - | 0 mm | - | - | - |
| 1778019830 | 15° C | 42% | - | 0 mm | - | - | - |
| 1778019527 | 15° C | 42% | - | 0 mm | - | - | - |
| 1778019224 | 15.56° C | 40% | - | 0 mm | - | - | - |
| 1778018921 | 15.56° C | 40% | - | 0 mm | - | - | - |
* Rain latest hour (hover to see other rain measurements)
** Current wind speed in m/s (hover to see current wind gust speed)